Time;durP1;ratioP1;P1;durP2;ratioP2;P2;SDS_P1;SDS_P2;PMS_P1;PMS_P2;Temp;Humidity;BMP_temperature;BMP_pressure;BME280_temperature;BME280_humidity;BME280_pressure;Samples;Min_cycle;Max_cycle;Signal;HPM_P1;HPM_P2
2022/08/15 00:01:01;;;;;;;12.77;11.90;;;;;;;;;;5021522;28;20438;-90
2022/08/15 00:03:35;;;;;;;10.40;9.80;;;;;;;;;;5011663;28;20487;-89
2022/08/15 00:06:03;;;;;;;9.80;9.20;;;;;;;;;;5007951;28;20434;-91
2022/08/15 00:08:29;;;;;;;28.47;25.93;;;;;;;;;;5008601;28;20486;-90
2022/08/15 00:10:57;;;;;;;10.90;10.30;;;;;;;;;;5011764;28;20446;-89
2022/08/15 00:13:25;;;;;;;10.07;9.57;;;;;;;;;;5027907;28;20438;-91
2022/08/15 00:15:54;;;;;;;13.17;9.97;;;;;;;;;;5005781;28;20428;-90
2022/08/15 00:18:21;;;;;;;9.10;8.57;;;;;;;;;;5007639;28;20436;-90
2022/08/15 00:20:47;;;;;;;10.40;9.80;;;;;;;;;;5020786;28;20682;-91
2022/08/15 00:23:14;;;;;;;10.17;9.30;;;;;;;;;;5012157;28;20538;-93
2022/08/15 00:25:41;;;;;;;10.63;9.83;;;;;;;;;;5001637;28;20455;-91
2022/08/15 00:28:07;;;;;;;11.03;10.33;;;;;;;;;;5015546;28;20411;-91
2022/08/15 00:30:38;;;;;;;9.97;9.37;;;;;;;;;;5005580;28;20526;-91
2022/08/15 00:33:04;;;;;;;10.60;10.00;;;;;;;;;;5013003;28;20424;-92
2022/08/15 00:35:36;;;;;;;16.80;15.40;;;;;;;;;;5029509;28;20445;-90
2022/08/15 00:38:23;;;;;;;12.07;11.27;;;;;;;;;;5038308;28;20447;-89
2022/08/15 00:43:37;;;;;;;9.37;8.77;;;;;;;;;;5034329;28;20414;-91
2022/08/15 00:46:05;;;;;;;11.00;10.20;;;;;;;;;;5027732;28;20431;-91
2022/08/15 00:48:43;;;;;;;12.33;11.53;;;;;;;;;;5029229;28;20422;-90
2022/08/15 00:51:11;;;;;;;17.13;15.67;;;;;;;;;;5019059;28;20445;-92
2022/08/15 00:53:38;;;;;;;13.63;12.73;;;;;;;;;;5035220;28;20446;-93
2022/08/15 00:56:05;;;;;;;9.80;9.20;;;;;;;;;;5006702;28;20456;-91
2022/08/15 00:58:31;;;;;;;9.30;8.80;;;;;;;;;;5005541;28;20474;-90
2022/08/15 01:00:58;;;;;;;10.10;9.57;;;;;;;;;;5017776;28;20449;-90
2022/08/15 01:03:26;;;;;;;11.10;10.30;;;;;;;;;;5018356;28;20478;-91
2022/08/15 01:05:54;;;;;;;9.77;9.27;;;;;;;;;;5020506;28;20434;-91
2022/08/15 01:08:23;;;;;;;10.53;9.77;;;;;;;;;;5021693;28;20419;-91
2022/08/15 01:10:49;;;;;;;10.40;9.63;;;;;;;;;;4999235;28;20523;-91
2022/08/15 01:13:15;;;;;;;9.90;9.30;;;;;;;;;;5000224;28;20434;-91
2022/08/15 01:15:41;;;;;;;9.90;9.13;;;;;;;;;;5028343;28;20439;-91
2022/08/15 01:18:07;;;;;;;10.43;9.83;;;;;;;;;;5016243;28;20465;-90
2022/08/15 01:20:34;;;;;;;9.23;8.73;;;;;;;;;;5034123;28;20526;-91
2022/08/15 01:23:03;;;;;;;10.20;9.60;;;;;;;;;;5011457;28;20420;-90
2022/08/15 01:25:32;;;;;;;10.60;9.90;;;;;;;;;;5036092;28;20473;-89
2022/08/15 01:28:12;;;;;;;10.90;9.90;;;;;;;;;;5002816;28;20453;-90
2022/08/15 01:30:41;;;;;;;12.50;11.60;;;;;;;;;;5029416;28;20458;-90
2022/08/15 01:33:07;;;;;;;10.27;9.63;;;;;;;;;;5017319;28;20411;-90
2022/08/15 01:35:34;;;;;;;11.33;10.60;;;;;;;;;;5000231;28;20573;-91
2022/08/15 01:38:01;;;;;;;11.30;10.50;;;;;;;;;;5009193;28;20469;-92
2022/08/15 01:40:36;;;;;;;10.03;9.53;;;;;;;;;;5020742;28;20431;-91
2022/08/15 01:43:03;;;;;;;9.67;9.17;;;;;;;;;;5021042;28;20458;-91
2022/08/15 01:45:30;;;;;;;10.20;9.70;;;;;;;;;;5026047;28;20457;-91
2022/08/15 01:48:03;;;;;;;9.37;8.80;;;;;;;;;;5007444;28;21091;-91
2022/08/15 01:50:31;;;;;;;10.83;10.03;;;;;;;;;;5006640;28;20439;-90
2022/08/15 01:53:00;;;;;;;9.63;9.13;;;;;;;;;;5021790;28;20988;-91
2022/08/15 01:55:31;;;;;;;9.10;8.50;;;;;;;;;;5001478;28;20988;-91
2022/08/15 01:57:57;;;;;;;10.00;9.43;;;;;;;;;;4997896;28;21001;-91
2022/08/15 02:00:23;;;;;;;10.60;9.60;;;;;;;;;;5007778;28;20442;-92
2022/08/15 02:02:49;;;;;;;8.97;8.33;;;;;;;;;;5010801;28;20430;-91
2022/08/15 02:05:15;;;;;;;7.80;7.27;;;;;;;;;;5001884;28;20542;-92
2022/08/15 02:07:41;;;;;;;7.80;7.30;;;;;;;;;;5004175;28;20435;-89
2022/08/15 02:10:07;;;;;;;7.97;7.47;;;;;;;;;;5014924;28;20469;-89
2022/08/15 02:12:35;;;;;;;7.87;7.37;;;;;;;;;;5007893;28;20454;-89
2022/08/15 02:15:03;;;;;;;7.13;6.80;;;;;;;;;;5014820;28;20557;-90
2022/08/15 02:17:29;;;;;;;6.77;6.37;;;;;;;;;;4999411;28;20446;-91
2022/08/15 02:19:55;;;;;;;7.33;7.03;;;;;;;;;;5021715;28;20840;-90
2022/08/15 02:22:22;;;;;;;6.90;6.60;;;;;;;;;;4996218;28;20812;-90
2022/08/15 02:24:48;;;;;;;6.20;5.80;;;;;;;;;;5021620;28;20414;-91
2022/08/15 02:27:15;;;;;;;6.20;5.90;;;;;;;;;;5000205;28;20467;-89
2022/08/15 02:29:42;;;;;;;6.20;5.67;;;;;;;;;;5014612;28;20522;-91
2022/08/15 02:32:11;;;;;;;6.60;6.30;;;;;;;;;;5003265;28;20538;-90
2022/08/15 02:34:37;;;;;;;6.33;6.07;;;;;;;;;;4996723;28;20518;-90
2022/08/15 02:37:03;;;;;;;5.97;5.77;;;;;;;;;;5005155;28;20451;-90
2022/08/15 02:39:33;;;;;;;7.83;7.00;;;;;;;;;;5013981;28;20458;-90
2022/08/15 02:41:58;;;;;;;6.87;6.33;;;;;;;;;;5028456;28;20931;-90
2022/08/15 02:44:25;;;;;;;6.00;5.80;;;;;;;;;;5003950;28;20446;-91
2022/08/15 02:46:52;;;;;;;5.80;5.60;;;;;;;;;;5002679;28;20809;-90
2022/08/15 02:49:19;;;;;;;6.20;5.80;;;;;;;;;;4995782;28;20492;-91
2022/08/15 02:51:46;;;;;;;5.40;5.30;;;;;;;;;;5011869;28;20477;-90
2022/08/15 02:54:13;;;;;;;6.17;5.87;;;;;;;;;;5004014;28;20443;-90
2022/08/15 02:56:39;;;;;;;7.97;5.47;;;;;;;;;;5029603;28;20434;-90
2022/08/15 02:59:07;;;;;;;5.87;5.57;;;;;;;;;;5013623;28;20951;-91
2022/08/15 03:01:37;;;;;;;6.47;6.27;;;;;;;;;;5011478;28;20450;-91
2022/08/15 03:04:04;;;;;;;5.63;5.23;;;;;;;;;;5008295;28;20467;-92
2022/08/15 03:06:30;;;;;;;5.47;5.37;;;;;;;;;;5006678;28;20509;-91
2022/08/15 03:09:00;;;;;;;6.37;5.87;;;;;;;;;;4994811;28;20423;-91
2022/08/15 03:11:26;;;;;;;5.50;5.40;;;;;;;;;;5000854;28;20439;-92
2022/08/15 03:13:54;;;;;;;5.97;5.77;;;;;;;;;;5006089;28;20970;-91
2022/08/15 03:16:20;;;;;;;5.57;5.27;;;;;;;;;;4993219;28;20497;-91
2022/08/15 03:18:46;;;;;;;5.43;5.23;;;;;;;;;;5004238;28;20458;-90
2022/08/15 03:21:16;;;;;;;5.43;5.23;;;;;;;;;;5012699;28;20438;-92
2022/08/15 03:23:48;;;;;;;5.17;4.87;;;;;;;;;;5006056;28;20579;-92
2022/08/15 03:26:15;;;;;;;6.20;5.97;;;;;;;;;;4994000;28;20435;-91
2022/08/15 03:28:41;;;;;;;6.00;5.53;;;;;;;;;;5002729;28;20410;-91
2022/08/15 03:31:07;;;;;;;6.43;6.10;;;;;;;;;;5000885;28;20431;-90
2022/08/15 03:33:35;;;;;;;5.70;5.30;;;;;;;;;;5001029;28;20438;-92
2022/08/15 03:36:01;;;;;;;5.27;5.07;;;;;;;;;;5000076;28;20543;-91
2022/08/15 03:38:27;;;;;;;5.00;4.80;;;;;;;;;;5021492;28;20830;-91
2022/08/15 03:40:53;;;;;;;4.90;4.50;;;;;;;;;;4999726;28;20463;-90
2022/08/15 03:43:21;;;;;;;8.90;5.10;;;;;;;;;;5006141;28;20454;-91
2022/08/15 03:45:51;;;;;;;5.33;5.23;;;;;;;;;;4995634;28;20668;-91
2022/08/15 03:48:18;;;;;;;5.50;5.20;;;;;;;;;;5001156;28;20439;-91
2022/08/15 03:50:44;;;;;;;4.93;4.70;;;;;;;;;;5014722;28;20497;-92
2022/08/15 03:53:11;;;;;;;5.47;5.00;;;;;;;;;;5025453;28;20435;-91
2022/08/15 03:55:38;;;;;;;6.03;5.63;;;;;;;;;;5007598;28;21000;-92
2022/08/15 03:58:05;;;;;;;5.50;4.57;;;;;;;;;;4995986;28;20997;-92
2022/08/15 04:00:40;;;;;;;5.53;5.33;;;;;;;;;;5002302;28;20438;-92
2022/08/15 04:03:09;;;;;;;4.73;4.63;;;;;;;;;;5007202;28;20451;-92
2022/08/15 04:05:36;;;;;;;4.87;4.77;;;;;;;;;;5011990;28;20472;-91
2022/08/15 04:08:03;;;;;;;6.33;5.93;;;;;;;;;;5004964;28;20950;-91
2022/08/15 04:10:29;;;;;;;8.23;5.53;;;;;;;;;;5004069;28;20510;-92
2022/08/15 04:12:55;;;;;;;5.60;5.00;;;;;;;;;;5003666;28;20447;-91
2022/08/15 04:15:22;;;;;;;5.10;4.70;;;;;;;;;;5009372;28;20435;-92
2022/08/15 04:17:48;;;;;;;5.97;5.30;;;;;;;;;;5006724;28;20486;-91
2022/08/15 04:20:14;;;;;;;5.17;5.07;;;;;;;;;;5038023;28;20434;-91
2022/08/15 04:22:45;;;;;;;4.90;4.50;;;;;;;;;;5005557;28;20430;-92
2022/08/15 04:25:15;;;;;;;24.27;8.80;;;;;;;;;;5017747;28;20604;-92
2022/08/15 04:27:42;;;;;;;12.20;6.13;;;;;;;;;;5024132;28;20423;-91
2022/08/15 04:30:08;;;;;;;5.80;5.40;;;;;;;;;;5024909;28;20454;-91
2022/08/15 04:32:34;;;;;;;21.30;6.10;;;;;;;;;;5038436;28;20428;-91
2022/08/15 04:35:00;;;;;;;6.00;4.80;;;;;;;;;;5040110;28;20436;-92
2022/08/15 04:37:28;;;;;;;5.20;4.90;;;;;;;;;;5053131;28;20469;-91
2022/08/15 04:39:54;;;;;;;4.50;4.30;;;;;;;;;;5025451;28;20473;-88
2022/08/15 04:42:21;;;;;;;4.77;4.50;;;;;;;;;;5022543;28;20434;-91
2022/08/15 04:44:47;;;;;;;4.80;4.57;;;;;;;;;;5018990;28;20427;-91
2022/08/15 04:47:14;;;;;;;5.20;4.83;;;;;;;;;;5045899;28;20434;-91
2022/08/15 04:49:40;;;;;;;8.83;5.33;;;;;;;;;;5015453;28;20482;-90
2022/08/15 04:52:08;;;;;;;5.10;4.70;;;;;;;;;;5031266;28;20437;-91
2022/08/15 04:54:34;;;;;;;5.50;4.97;;;;;;;;;;5028173;28;20431;-91
2022/08/15 04:57:01;;;;;;;5.43;4.53;;;;;;;;;;5016930;28;20469;-91
2022/08/15 04:59:27;;;;;;;4.97;4.63;;;;;;;;;;5005240;28;20466;-90
2022/08/15 05:01:53;;;;;;;5.07;4.60;;;;;;;;;;5025795;28;20932;-92
2022/08/15 05:04:19;;;;;;;5.00;4.57;;;;;;;;;;5009595;28;20459;-92
2022/08/15 05:06:46;;;;;;;5.37;5.03;;;;;;;;;;5015652;28;20434;-91
2022/08/15 05:09:15;;;;;;;4.17;4.00;;;;;;;;;;5020579;28;20465;-92
2022/08/15 05:11:40;;;;;;;10.90;6.70;;;;;;;;;;5010601;28;20439;-94
2022/08/15 05:14:06;;;;;;;6.07;5.77;;;;;;;;;;5004546;28;20419;-92
2022/08/15 05:16:33;;;;;;;5.17;4.77;;;;;;;;;;5030571;28;20420;-91
2022/08/15 05:18:59;;;;;;;7.13;5.10;;;;;;;;;;5005060;28;21080;-90
2022/08/15 05:21:25;;;;;;;5.90;4.90;;;;;;;;;;5001146;28;20950;-92
2022/08/15 05:23:57;;;;;;;4.13;4.03;;;;;;;;;;5003128;28;20929;-91
2022/08/15 05:26:23;;;;;;;5.13;4.70;;;;;;;;;;5012459;28;20469;-84
2022/08/15 05:28:49;;;;;;;6.43;4.87;;;;;;;;;;5002470;28;21272;-91
2022/08/15 05:31:16;;;;;;;7.17;4.93;;;;;;;;;;5015168;28;20442;-90
2022/08/15 05:33:46;;;;;;;5.67;4.90;;;;;;;;;;5015431;28;20455;-91
2022/08/15 05:36:23;;;;;;;4.77;4.57;;;;;;;;;;5014585;28;20438;-94
2022/08/15 05:38:51;;;;;;;4.87;4.57;;;;;;;;;;5015710;28;20509;-93
2022/08/15 05:41:18;;;;;;;4.53;4.20;;;;;;;;;;5015076;28;20442;-90
2022/08/15 05:43:51;;;;;;;6.23;5.10;;;;;;;;;;5009406;28;20423;-92
2022/08/15 05:46:23;;;;;;;4.50;4.30;;;;;;;;;;5009526;28;20428;-87
2022/08/15 05:48:54;;;;;;;4.33;4.23;;;;;;;;;;5011177;28;20432;-87
2022/08/15 05:51:26;;;;;;;3.77;3.53;;;;;;;;;;5014685;28;20424;-87
2022/08/15 05:54:06;;;;;;;6.40;4.13;;;;;;;;;;5026121;28;20472;-87
2022/08/15 05:56:49;;;;;;;4.73;4.33;;;;;;;;;;4997850;28;20428;-87
2022/08/15 05:59:16;;;;;;;4.47;4.20;;;;;;;;;;5004646;28;20478;-87
2022/08/15 06:01:49;;;;;;;4.80;3.73;;;;;;;;;;5011507;28;20435;-87
2022/08/15 06:04:21;;;;;;;3.50;3.50;;;;;;;;;;5012462;28;20928;-87
2022/08/15 06:06:48;;;;;;;3.90;3.80;;;;;;;;;;4994223;28;20463;-86
2022/08/15 06:09:33;;;;;;;3.90;3.80;;;;;;;;;;4999640;28;20773;-86
2022/08/15 06:12:01;;;;;;;6.30;4.97;;;;;;;;;;5001704;28;20985;-87
2022/08/15 06:14:32;;;;;;;5.07;4.60;;;;;;;;;;5004193;28;20444;-88
2022/08/15 06:17:10;;;;;;;4.40;4.13;;;;;;;;;;5002895;28;21076;-88
2022/08/15 06:19:42;;;;;;;3.77;3.67;;;;;;;;;;5003101;28;20455;-88
2022/08/15 06:22:08;;;;;;;5.80;3.60;;;;;;;;;;5016921;28;20451;-88
2022/08/15 06:24:46;;;;;;;4.03;3.40;;;;;;;;;;4991998;28;21092;-89
2022/08/15 06:27:24;;;;;;;5.78;4.45;;;;;;;;;;4649830;28;10000541;-87
2022/08/15 06:29:50;;;;;;;3.97;3.67;;;;;;;;;;5017856;28;20261;-88
2022/08/15 06:32:25;;;;;;;3.63;3.43;;;;;;;;;;4992938;28;20452;-88
2022/08/15 06:35:09;;;;;;;3.90;3.70;;;;;;;;;;5008099;28;20441;-88
2022/08/15 06:37:51;;;;;;;3.23;3.03;;;;;;;;;;4997765;28;20519;-88
2022/08/15 06:40:36;;;;;;;3.37;3.20;;;;;;;;;;4999875;28;20426;-89
2022/08/15 06:43:02;;;;;;;3.60;3.30;;;;;;;;;;5006047;28;20439;-89
2022/08/15 06:45:31;;;;;;;3.63;3.33;;;;;;;;;;4994154;28;20493;-88
2022/08/15 06:48:03;;;;;;;4.43;4.13;;;;;;;;;;5005875;28;20444;-88
2022/08/15 06:50:32;;;;;;;2.93;2.93;;;;;;;;;;4998852;28;20442;-88
2022/08/15 06:53:08;;;;;;;4.03;3.70;;;;;;;;;;4997571;28;20999;-88
2022/08/15 06:55:39;;;;;;;3.07;2.90;;;;;;;;;;4993995;28;21122;-87
2022/08/15 06:58:12;;;;;;;3.30;3.30;;;;;;;;;;4993753;28;20463;-88
2022/08/15 07:00:45;;;;;;;4.73;4.53;;;;;;;;;;4995194;28;20454;-88
2022/08/15 07:03:30;;;;;;;3.40;3.30;;;;;;;;;;5011743;28;20446;-87
2022/08/15 07:05:57;;;;;;;3.60;3.50;;;;;;;;;;4996896;28;20452;-86
2022/08/15 07:08:25;;;;;;;3.73;3.37;;;;;;;;;;5019720;28;20545;-86
2022/08/15 07:10:59;;;;;;;3.50;3.40;;;;;;;;;;4998468;28;20427;-87
2022/08/15 07:13:26;;;;;;;3.20;3.00;;;;;;;;;;5015697;28;20538;-88
2022/08/15 07:15:52;;;;;;;3.83;3.33;;;;;;;;;;5001381;28;20486;-88
2022/08/15 07:18:39;;;;;;;2.97;2.83;;;;;;;;;;5014619;28;20465;-89
2022/08/15 07:21:14;;;;;;;3.17;3.07;;;;;;;;;;5018736;28;20435;-90
2022/08/15 07:24:00;;;;;;;5.63;3.27;;;;;;;;;;4975811;28;20570;-88
2022/08/15 07:26:28;;;;;;;3.73;3.43;;;;;;;;;;4997369;28;20438;-89
2022/08/15 07:28:57;;;;;;;3.70;3.40;;;;;;;;;;5011285;28;20451;-89
2022/08/15 07:31:32;;;;;;;4.90;3.27;;;;;;;;;;5008443;28;20435;-88
2022/08/15 07:34:03;;;;;;;3.57;3.40;;;;;;;;;;4990113;28;20493;-88
2022/08/15 07:36:33;;;;;;;4.10;3.73;;;;;;;;;;5001889;28;20435;-89
2022/08/15 07:39:19;;;;;;;3.97;3.67;;;;;;;;;;4996582;28;20995;-88
2022/08/15 07:41:46;;;;;;;4.60;4.30;;;;;;;;;;5000342;28;20439;-87
2022/08/15 07:44:18;;;;;;;3.53;3.30;;;;;;;;;;5001555;28;20479;-88
2022/08/15 07:47:10;;;;;;;3.30;3.20;;;;;;;;;;5014332;28;20841;-87
2022/08/15 07:49:37;;;;;;;4.10;3.70;;;;;;;;;;4999837;28;20423;-88
2022/08/15 07:52:05;;;;;;;4.37;4.00;;;;;;;;;;5000417;28;20446;-88
2022/08/15 07:54:34;;;;;;;3.47;3.37;;;;;;;;;;4994376;28;20423;-89
2022/08/15 07:57:02;;;;;;;3.87;3.57;;;;;;;;;;5009916;28;20794;-88
2022/08/15 07:59:33;;;;;;;4.27;4.07;;;;;;;;;;4995004;28;20501;-87
2022/08/15 08:02:10;;;;;;;3.57;3.47;;;;;;;;;;4993135;28;20852;-89
2022/08/15 08:04:36;;;;;;;3.60;3.37;;;;;;;;;;5004528;28;20731;-89
2022/08/15 08:07:28;;;;;;;4.00;3.80;;;;;;;;;;5009256;28;20901;-91
2022/08/15 08:09:58;;;;;;;3.90;3.60;;;;;;;;;;4998469;28;20474;-91
2022/08/15 08:12:37;;;;;;;3.53;3.30;;;;;;;;;;5015459;28;20453;-92
2022/08/15 08:15:19;;;;;;;4.30;3.80;;;;;;;;;;5008637;28;20427;-92
2022/08/15 08:17:50;;;;;;;4.37;4.07;;;;;;;;;;4657632;28;10000542;-93
2022/08/15 08:20:26;;;;;;;4.73;4.33;;;;;;;;;;5030134;28;20172;-89
2022/08/15 08:22:58;;;;;;;3.80;3.70;;;;;;;;;;5002200;28;20527;-92
2022/08/15 08:25:40;;;;;;;3.80;3.67;;;;;;;;;;5010726;28;20516;-92
2022/08/15 08:28:20;;;;;;;4.97;4.10;;;;;;;;;;5003229;28;20435;-91
2022/08/15 08:31:11;;;;;;;4.60;4.40;;;;;;;;;;5000182;28;20437;-92
2022/08/15 08:33:43;;;;;;;3.60;3.50;;;;;;;;;;5010287;28;20793;-93
2022/08/15 08:36:10;;;;;;;4.23;3.93;;;;;;;;;;5006917;28;20944;-92
2022/08/15 08:38:36;;;;;;;4.87;4.60;;;;;;;;;;5000479;28;20537;-92
2022/08/15 08:43:56;;;;;;;4.30;4.13;;;;;;;;;;5019522;28;20461;-92
2022/08/15 08:46:55;;;;;;;4.13;3.73;;;;;;;;;;4996588;28;20424;-90
2022/08/15 08:49:30;;;;;;;4.60;4.30;;;;;;;;;;4960891;28;20430;-91
2022/08/15 08:51:59;;;;;;;4.73;4.33;;;;;;;;;;4999526;28;20415;-88
2022/08/15 08:54:45;;;;;;;3.93;3.73;;;;;;;;;;5005556;28;20426;-87
2022/08/15 08:57:15;;;;;;;4.70;4.40;;;;;;;;;;4965440;28;20489;-89
2022/08/15 08:59:49;;;;;;;4.63;4.07;;;;;;;;;;5024684;28;20458;-91
2022/08/15 09:02:27;;;;;;;4.43;4.20;;;;;;;;;;5025567;28;20469;-90
2022/08/15 09:04:55;;;;;;;5.20;4.47;;;;;;;;;;5005719;28;20538;-92
2022/08/15 09:07:28;;;;;;;7.87;4.63;;;;;;;;;;5022840;28;20449;-89
2022/08/15 09:09:55;;;;;;;4.40;4.27;;;;;;;;;;5006376;28;20446;-92
2022/08/15 09:15:27;;;;;;;7.00;4.57;;;;;;;;;;5020783;28;20481;-91
2022/08/15 09:17:55;;;;;;;4.03;3.87;;;;;;;;;;5014899;28;20428;-88
2022/08/15 09:20:28;;;;;;;3.90;3.90;;;;;;;;;;5019696;28;20430;-91
2022/08/15 09:22:55;;;;;;;5.17;4.83;;;;;;;;;;5032833;28;20486;-90
2022/08/15 09:25:32;;;;;;;5.60;4.50;;;;;;;;;;5014365;28;20431;-89
2022/08/15 09:28:11;;;;;;;6.63;4.30;;;;;;;;;;5008168;28;20447;-87
2022/08/15 09:30:38;;;;;;;6.17;4.80;;;;;;;;;;5005812;28;20445;-91
2022/08/15 09:33:29;;;;;;;5.20;4.80;;;;;;;;;;5027376;28;20453;-87
2022/08/15 09:36:14;;;;;;;5.10;4.57;;;;;;;;;;5001281;28;20971;-88
2022/08/15 09:38:51;;;;;;;6.20;4.50;;;;;;;;;;4998366;28;20647;-89
2022/08/15 09:41:27;;;;;;;4.53;4.37;;;;;;;;;;5016656;28;20925;-90
2022/08/15 09:44:00;;;;;;;4.50;4.30;;;;;;;;;;5013684;28;20435;-90
2022/08/15 09:46:32;;;;;;;5.07;4.73;;;;;;;;;;5008445;28;20442;-90
2022/08/15 09:49:04;;;;;;;4.80;4.40;;;;;;;;;;5003847;28;20427;-88
2022/08/15 09:51:48;;;;;;;8.87;4.60;;;;;;;;;;5006002;28;20470;-88
2022/08/15 09:54:18;;;;;;;5.33;4.90;;;;;;;;;;5010622;28;20434;-90
2022/08/15 09:56:44;;;;;;;5.13;4.90;;;;;;;;;;5035459;28;20453;-93
2022/08/15 09:59:17;;;;;;;4.90;4.60;;;;;;;;;;5003656;28;20467;-92
2022/08/15 10:01:45;;;;;;;4.40;4.30;;;;;;;;;;5009950;28;20527;-91
2022/08/15 10:04:12;;;;;;;4.80;4.50;;;;;;;;;;5014987;28;20459;-92
2022/08/15 10:07:02;;;;;;;4.83;4.40;;;;;;;;;;5028703;28;20470;-91
2022/08/15 10:09:28;;;;;;;4.60;4.40;;;;;;;;;;4982768;28;20433;-93
2022/08/15 10:11:56;;;;;;;4.47;4.17;;;;;;;;;;5030723;28;20459;-92
2022/08/15 10:14:22;;;;;;;5.03;4.70;;;;;;;;;;5016681;28;20427;-92
2022/08/15 10:16:52;;;;;;;3.97;3.87;;;;;;;;;;5038047;23;21206;-94
2022/08/15 10:19:38;;;;;;;4.83;4.50;;;;;;;;;;4639105;28;9999831;-88
2022/08/15 10:22:21;;;;;;;5.50;5.10;;;;;;;;;;4994459;28;20188;-88
2022/08/15 10:25:07;;;;;;;5.03;4.67;;;;;;;;;;4990463;28;20445;-90
2022/08/15 10:27:53;;;;;;;9.67;6.07;;;;;;;;;;5000291;28;20419;-87
2022/08/15 10:30:20;;;;;;;5.13;4.93;;;;;;;;;;4997638;28;20431;-88
2022/08/15 10:32:46;;;;;;;5.17;4.80;;;;;;;;;;4647684;28;10001349;-87
2022/08/15 10:35:17;;;;;;;5.90;5.07;;;;;;;;;;4992538;28;20442;-88
2022/08/15 10:37:51;;;;;;;10.00;5.50;;;;;;;;;;5002228;28;20455;-89
2022/08/15 10:40:23;;;;;;;5.23;4.73;;;;;;;;;;4986342;28;20518;-87
2022/08/15 10:42:59;;;;;;;8.43;5.10;;;;;;;;;;5010101;28;20447;-88
2022/08/15 10:45:36;;;;;;;5.93;4.37;;;;;;;;;;4996470;28;20408;-85
2022/08/15 10:48:10;;;;;;;5.30;5.00;;;;;;;;;;4995209;28;20451;-88
2022/08/15 10:50:45;;;;;;;4.80;4.63;;;;;;;;;;4987977;28;20530;-89
2022/08/15 10:53:12;;;;;;;7.47;5.40;;;;;;;;;;4995547;28;20503;-90
2022/08/15 10:55:39;;;;;;;5.90;5.50;;;;;;;;;;4994476;28;20443;-91
2022/08/15 10:58:09;;;;;;;5.20;4.90;;;;;;;;;;5000905;28;20506;-89
2022/08/15 11:00:44;;;;;;;6.83;6.20;;;;;;;;;;5013543;28;20517;-91
2022/08/15 11:03:22;;;;;;;7.67;5.50;;;;;;;;;;4993472;28;20897;-89
2022/08/15 11:06:03;;;;;;;6.20;5.70;;;;;;;;;;4993849;28;20889;-89
2022/08/15 11:08:29;;;;;;;5.43;5.23;;;;;;;;;;4986933;28;20451;-86
2022/08/15 11:11:05;;;;;;;5.57;5.10;;;;;;;;;;4984089;28;20433;-88
2022/08/15 11:13:38;;;;;;;6.13;5.70;;;;;;;;;;4993054;28;20456;-87
2022/08/15 11:16:20;;;;;;;5.93;5.50;;;;;;;;;;4996443;28;20415;-90
2022/08/15 11:18:54;;;;;;;5.97;5.57;;;;;;;;;;5001769;28;20475;-91
2022/08/15 11:21:43;;;;;;;8.33;5.37;;;;;;;;;;5010437;28;20484;-90
2022/08/15 11:24:12;;;;;;;8.33;4.93;;;;;;;;;;5005797;28;20426;-93
2022/08/15 11:26:40;;;;;;;5.47;4.93;;;;;;;;;;4993959;28;20431;-90
2022/08/15 11:29:17;;;;;;;6.70;5.50;;;;;;;;;;4995122;28;21063;-93
2022/08/15 11:31:58;;;;;;;4.90;4.53;;;;;;;;;;4988170;28;20451;-92
2022/08/15 11:34:40;;;;;;;6.13;5.63;;;;;;;;;;5005136;28;20467;-93
2022/08/15 11:37:09;;;;;;;5.30;5.00;;;;;;;;;;4998401;28;20931;-92
2022/08/15 11:39:38;;;;;;;5.80;5.40;;;;;;;;;;4992122;28;20475;-94
2022/08/15 11:42:07;;;;;;;5.53;5.23;;;;;;;;;;4985552;28;20440;-93
2022/08/15 11:44:38;;;;;;;6.10;5.70;;;;;;;;;;4996285;28;20428;-91
2022/08/15 11:47:05;;;;;;;6.10;5.80;;;;;;;;;;4993424;28;20926;-92
2022/08/15 11:49:34;;;;;;;4.90;4.70;;;;;;;;;;5005425;28;20460;-93
2022/08/15 11:52:08;;;;;;;6.70;5.77;;;;;;;;;;4996842;28;20448;-92
2022/08/15 11:54:34;;;;;;;5.73;5.43;;;;;;;;;;4990927;28;20447;-93
2022/08/15 11:57:06;;;;;;;5.87;5.57;;;;;;;;;;4994465;28;20961;-92
2022/08/15 11:59:37;;;;;;;4.80;4.60;;;;;;;;;;4990216;28;20475;-93
2022/08/15 12:02:12;;;;;;;6.10;5.67;;;;;;;;;;5002353;28;20447;-91
2022/08/15 12:04:43;;;;;;;5.97;5.50;;;;;;;;;;4987695;28;20459;-92
2022/08/15 12:07:46;;;;;;;6.60;6.20;;;;;;;;;;4997723;28;20436;-91
2022/08/15 12:10:46;;;;;;;6.67;6.17;;;;;;;;;;4942024;29;20573;-92
2022/08/15 12:13:16;;;;;;;5.93;5.53;;;;;;;;;;4977929;28;20571;-92
2022/08/15 12:15:44;;;;;;;6.60;5.97;;;;;;;;;;4995525;28;20439;-93
2022/08/15 12:18:32;;;;;;;5.97;5.47;;;;;;;;;;4985213;28;20543;-90
2022/08/15 12:21:03;;;;;;;5.70;5.40;;;;;;;;;;5009500;28;20530;-91
2022/08/15 12:23:38;;;;;;;5.77;5.43;;;;;;;;;;4993655;28;20462;-90
2022/08/15 12:26:06;;;;;;;7.30;6.60;;;;;;;;;;5007775;28;20426;-92
2022/08/15 12:28:45;;;;;;;5.70;5.23;;;;;;;;;;4994458;28;20452;-93
2022/08/15 12:31:18;;;;;;;6.20;5.77;;;;;;;;;;5012663;28;20443;-92
2022/08/15 12:33:48;;;;;;;5.40;5.00;;;;;;;;;;4999732;28;20436;-91
2022/08/15 12:36:14;;;;;;;6.53;5.90;;;;;;;;;;4994750;28;20428;-89
2022/08/15 12:38:56;;;;;;;5.17;4.77;;;;;;;;;;5010150;28;20459;-92
2022/08/15 12:41:22;;;;;;;6.00;5.50;;;;;;;;;;5002389;28;20430;-93
2022/08/15 12:43:51;;;;;;;5.27;5.03;;;;;;;;;;4981183;28;20942;-90
2022/08/15 12:46:18;;;;;;;7.30;5.90;;;;;;;;;;4999196;28;20443;-90
2022/08/15 12:48:46;;;;;;;6.23;5.83;;;;;;;;;;4986138;28;20589;-89
2022/08/15 12:51:13;;;;;;;5.33;5.13;;;;;;;;;;4999383;28;20422;-89
2022/08/15 12:53:39;;;;;;;8.70;7.90;;;;;;;;;;4290136;28;10000688;-89
2022/08/15 12:56:09;;;;;;;5.93;5.70;;;;;;;;;;5010946;28;20260;-93
2022/08/15 12:58:36;;;;;;;9.30;5.63;;;;;;;;;;4988041;28;20479;-94
2022/08/15 13:01:04;;;;;;;6.90;6.07;;;;;;;;;;4986440;28;20444;-93
2022/08/15 13:03:33;;;;;;;6.13;5.83;;;;;;;;;;4989772;28;20456;-91
2022/08/15 13:06:02;;;;;;;6.97;6.27;;;;;;;;;;4992421;28;20974;-93
2022/08/15 13:08:28;;;;;;;6.23;5.70;;;;;;;;;;4989048;28;20443;-91
2022/08/15 13:11:01;;;;;;;5.83;5.23;;;;;;;;;;4997266;28;20443;-94
2022/08/15 13:13:32;;;;;;;6.03;5.63;;;;;;;;;;5005245;28;20432;-91
2022/08/15 13:15:58;;;;;;;5.80;5.50;;;;;;;;;;4993953;28;20467;-92
2022/08/15 13:18:27;;;;;;;6.03;5.53;;;;;;;;;;5020485;28;20454;-95
2022/08/15 13:23:39;;;;;;;5.70;5.50;;;;;;;;;;5010143;28;21013;-90
2022/08/15 13:26:11;;;;;;;5.80;5.30;;;;;;;;;;4985556;28;20446;-91
2022/08/15 13:28:38;;;;;;;5.03;4.87;;;;;;;;;;4977845;28;20441;-91
2022/08/15 13:31:04;;;;;;;6.00;5.80;;;;;;;;;;4990579;28;20419;-89
2022/08/15 13:33:31;;;;;;;6.00;5.80;;;;;;;;;;4986740;28;20478;-91
2022/08/15 13:35:58;;;;;;;5.70;5.40;;;;;;;;;;4990626;28;20418;-90
2022/08/15 13:38:27;;;;;;;6.30;5.80;;;;;;;;;;4992876;28;20475;-88
2022/08/15 13:40:53;;;;;;;5.93;5.50;;;;;;;;;;4993482;28;20455;-91
2022/08/15 13:43:20;;;;;;;6.50;6.10;;;;;;;;;;4979528;28;20469;-91
2022/08/15 13:45:47;;;;;;;6.03;5.60;;;;;;;;;;4981526;28;20432;-90
2022/08/15 13:48:21;;;;;;;5.70;5.50;;;;;;;;;;4988278;28;20433;-90
2022/08/15 13:50:48;;;;;;;5.40;5.10;;;;;;;;;;5004433;28;20407;-90
2022/08/15 13:53:14;;;;;;;7.80;7.30;;;;;;;;;;4996978;28;20429;-88
2022/08/15 13:55:41;;;;;;;5.73;5.30;;;;;;;;;;5004082;28;20455;-90
2022/08/15 13:58:07;;;;;;;6.03;5.43;;;;;;;;;;4981134;28;20650;-91
2022/08/15 14:00:33;;;;;;;5.80;5.50;;;;;;;;;;4981745;28;20460;-90
2022/08/15 14:03:00;;;;;;;7.63;5.07;;;;;;;;;;4996628;28;20472;-93
2022/08/15 14:05:27;;;;;;;5.57;5.47;;;;;;;;;;5013308;28;20444;-91
2022/08/15 14:07:57;;;;;;;6.20;5.70;;;;;;;;;;4995442;28;20421;-93
2022/08/15 14:10:25;;;;;;;6.00;5.73;;;;;;;;;;5011046;28;20944;-92
2022/08/15 14:12:51;;;;;;;5.33;4.90;;;;;;;;;;5004041;28;20442;-92
2022/08/15 14:15:28;;;;;;;5.63;5.40;;;;;;;;;;5006906;28;20960;-93
2022/08/15 14:17:54;;;;;;;5.73;5.40;;;;;;;;;;4997527;28;20475;-94
2022/08/15 14:20:21;;;;;;;5.90;5.60;;;;;;;;;;5012550;28;20467;-91
2022/08/15 14:25:36;;;;;;;5.00;4.80;;;;;;;;;;4762876;26;20484;-91
2022/08/15 14:28:02;;;;;;;6.17;5.90;;;;;;;;;;5048699;28;20494;-93
2022/08/15 14:30:39;;;;;;;6.07;5.77;;;;;;;;;;5049017;28;20449;-92
2022/08/15 14:33:08;;;;;;;5.50;5.30;;;;;;;;;;5058616;28;20464;-93
2022/08/15 14:35:36;;;;;;;6.27;5.87;;;;;;;;;;5064742;28;20437;-91
2022/08/15 14:38:06;;;;;;;5.60;5.40;;;;;;;;;;4357652;28;10000703;-90
2022/08/15 14:43:30;;;;;;;6.47;6.13;;;;;;;;;;5049497;28;20446;-92
2022/08/15 14:45:58;;;;;;;5.67;5.27;;;;;;;;;;5046932;28;20430;-92
2022/08/15 14:48:27;;;;;;;5.73;5.50;;;;;;;;;;5050441;28;20471;-94
2022/08/15 14:50:58;;;;;;;5.93;5.63;;;;;;;;;;5045979;28;20444;-89
2022/08/15 14:53:27;;;;;;;6.00;5.63;;;;;;;;;;5043095;28;21026;-90
2022/08/15 14:55:55;;;;;;;6.93;6.40;;;;;;;;;;5060018;28;20469;-93
2022/08/15 14:58:26;;;;;;;6.23;5.73;;;;;;;;;;5047723;28;20950;-91
2022/08/15 15:00:53;;;;;;;6.40;6.10;;;;;;;;;;5045798;28;20436;-92
2022/08/15 15:03:19;;;;;;;6.07;5.67;;;;;;;;;;5042240;28;20421;-93
2022/08/15 15:05:45;;;;;;;5.97;5.60;;;;;;;;;;5036197;28;20453;-94
2022/08/15 15:08:12;;;;;;;5.30;5.10;;;;;;;;;;5039013;28;20429;-93
2022/08/15 15:10:38;;;;;;;6.40;6.10;;;;;;;;;;5037657;28;20435;-95
2022/08/15 15:13:06;;;;;;;5.20;5.00;;;;;;;;;;5043313;28;20926;-91
2022/08/15 15:20:44;;;;;;;5.70;5.17;;;;;;;;;;5137486;23;20502;-88
2022/08/15 15:23:16;;;;;;;5.53;5.10;;;;;;;;;;5040088;23;20788;-93